createdAt,value
2018-11-01T00:01:04.337Z,8.52
2018-11-01T00:03:32.938Z,8.44
2018-11-01T00:06:00.969Z,8.42
2018-11-01T00:08:28.986Z,8.37
2018-11-01T00:10:56.974Z,8.50
2018-11-01T00:13:24.970Z,8.51
2018-11-01T00:15:52.911Z,8.51
2018-11-01T00:18:20.840Z,8.33
2018-11-01T00:20:48.796Z,8.35
2018-11-01T00:23:16.742Z,8.44
2018-11-01T00:25:44.742Z,8.42
2018-11-01T00:28:12.632Z,8.50
2018-11-01T00:30:41.139Z,8.66
2018-11-01T00:33:09.144Z,8.39
2018-11-01T00:35:37.112Z,8.33
2018-11-01T00:38:05.573Z,8.49
2018-11-01T00:40:33.506Z,8.36
2018-11-01T00:43:01.459Z,8.58
2018-11-01T00:45:29.471Z,8.58
2018-11-01T00:47:57.501Z,8.56
2018-11-01T00:50:25.449Z,8.56
2018-11-01T00:52:53.405Z,8.60
2018-11-01T00:55:21.353Z,8.55
2018-11-01T00:57:49.340Z,8.60
2018-11-01T01:00:17.340Z,8.61
2018-11-01T01:02:45.281Z,8.56
2018-11-01T01:05:13.303Z,8.53
2018-11-01T01:07:41.329Z,8.63
2018-11-01T01:10:12.735Z,8.67
2018-11-01T01:12:41.345Z,8.65
2018-11-01T01:15:09.621Z,8.71
2018-11-01T01:17:37.728Z,8.70
2018-11-01T01:20:08.074Z,8.54
2018-11-01T01:22:36.069Z,8.67
2018-11-01T01:25:05.356Z,8.69
2018-11-01T01:27:33.228Z,8.63
2018-11-01T01:30:01.148Z,8.57
2018-11-01T01:32:29.099Z,8.56
2018-11-01T01:34:56.972Z,8.62
2018-11-01T01:37:24.860Z,8.69
2018-11-01T01:39:52.794Z,8.65
2018-11-01T01:42:20.788Z,8.52
2018-11-01T01:44:48.701Z,8.50
2018-11-01T01:47:16.654Z,8.58
2018-11-01T01:49:44.590Z,8.52
2018-11-01T01:52:12.622Z,8.60
2018-11-01T01:54:40.631Z,8.64
2018-11-01T01:57:08.530Z,8.65
2018-11-01T01:59:36.508Z,8.45
2018-11-01T02:02:04.859Z,8.53
2018-11-01T02:04:32.785Z,8.54
2018-11-01T02:07:00.689Z,8.48
2018-11-01T02:09:28.637Z,8.36
2018-11-01T02:11:56.719Z,8.36
2018-11-01T02:14:24.647Z,8.50
2018-11-01T02:16:52.567Z,8.54
2018-11-01T02:19:20.538Z,8.53
2018-11-01T02:21:48.522Z,8.27
2018-11-01T02:24:16.528Z,8.51
2018-11-01T02:26:44.596Z,8.42
2018-11-01T02:29:12.564Z,8.37
2018-11-01T02:31:40.534Z,8.40
2018-11-01T02:34:08.491Z,8.37
2018-11-01T02:36:36.444Z,8.59
2018-11-01T02:39:07.634Z,8.29
2018-11-01T02:41:35.629Z,8.42
2018-11-01T02:44:03.619Z,8.25
2018-11-01T02:46:31.501Z,8.22
2018-11-01T02:48:59.466Z,8.24
2018-11-01T02:51:27.741Z,8.30
2018-11-01T02:53:55.766Z,8.34
2018-11-01T02:56:23.708Z,8.30
2018-11-01T02:58:51.832Z,8.27
2018-11-01T03:01:19.812Z,8.34
2018-11-01T03:03:49.073Z,8.38
2018-11-01T03:06:17.764Z,8.39
2018-11-01T03:08:45.897Z,8.21
2018-11-01T03:11:13.944Z,8.20
2018-11-01T03:13:41.973Z,8.20
2018-11-01T03:16:09.969Z,8.20
2018-11-01T03:18:37.949Z,8.19
2018-11-01T03:21:05.986Z,8.21
2018-11-01T03:23:34.020Z,8.15
2018-11-01T03:26:02.043Z,8.06
2018-11-01T03:28:30.066Z,7.98
2018-11-01T03:30:58.093Z,7.96
2018-11-01T03:33:26.018Z,7.92
2018-11-01T03:35:54.031Z,7.87
2018-11-01T03:38:22.086Z,7.78
2018-11-01T03:40:49.967Z,7.77
2018-11-01T03:43:17.871Z,7.74
2018-11-01T03:45:45.865Z,7.77
2018-11-01T03:48:13.764Z,7.70
2018-11-01T03:50:41.725Z,7.80
2018-11-01T03:53:09.665Z,7.80
2018-11-01T03:55:37.641Z,7.57
2018-11-01T03:58:05.992Z,7.34
2018-11-01T04:00:33.976Z,7.10
2018-11-01T04:03:01.921Z,7.27
2018-11-01T04:05:30.624Z,7.46
2018-11-01T04:07:58.669Z,7.40
2018-11-01T04:10:26.579Z,7.55
2018-11-01T04:12:56.291Z,7.69
2018-11-01T04:15:24.402Z,7.85
2018-11-01T04:17:52.235Z,7.96
2018-11-01T04:20:20.234Z,7.92
2018-11-01T04:22:48.791Z,7.89
2018-11-01T04:25:17.608Z,7.70
2018-11-01T04:27:47.168Z,7.79
2018-11-01T04:30:15.176Z,7.92
2018-11-01T04:32:43.178Z,8.02
2018-11-01T04:35:11.167Z,8.11
2018-11-01T04:37:39.414Z,7.75
2018-11-01T04:40:07.851Z,7.86
2018-11-01T04:42:35.809Z,7.87
2018-11-01T04:45:03.907Z,7.66
2018-11-01T04:47:31.881Z,7.62
2018-11-01T04:49:59.825Z,7.66
2018-11-01T04:52:27.785Z,7.53
2018-11-01T04:54:55.794Z,7.66
2018-11-01T04:57:23.815Z,7.69
2018-11-01T04:59:51.765Z,7.67
2018-11-01T05:02:20.166Z,7.55
2018-11-01T05:04:48.191Z,7.58
2018-11-01T05:07:16.226Z,7.57
2018-11-01T05:09:44.158Z,7.86
2018-11-01T05:12:12.114Z,7.84
2018-11-01T05:14:40.077Z,7.80
2018-11-01T05:17:08.036Z,7.79
2018-11-01T05:19:35.974Z,7.94
2018-11-01T05:22:04.670Z,7.97
2018-11-01T05:24:32.572Z,7.97
2018-11-01T05:27:00.501Z,7.98
2018-11-01T05:29:28.451Z,8.12
2018-11-01T05:31:56.420Z,8.04
2018-11-01T05:34:24.369Z,8.10
2018-11-01T05:36:52.314Z,7.97
2018-11-01T05:39:20.303Z,7.95
2018-11-01T05:41:48.223Z,8.07
2018-11-01T05:44:16.180Z,8.13
2018-11-01T05:46:44.217Z,8.11
2018-11-01T05:49:12.188Z,8.19
2018-11-01T05:51:40.133Z,7.98
2018-11-01T05:54:08.013Z,8.01
2018-11-01T05:56:35.971Z,8.14
2018-11-01T05:59:04.020Z,8.03
2018-11-01T06:01:33.352Z,8.01
2018-11-01T06:04:01.928Z,8.11
2018-11-01T06:06:29.833Z,8.02
2018-11-01T06:08:58.996Z,8.06
2018-11-01T06:11:26.880Z,8.04
2018-11-01T06:13:54.868Z,8.16
2018-11-01T06:16:22.860Z,8.10
2018-11-01T06:18:50.808Z,8.12
2018-11-01T06:21:18.745Z,8.14
2018-11-01T06:23:46.663Z,7.95
2018-11-01T06:26:14.756Z,7.93
2018-11-01T06:28:42.719Z,7.97
2018-11-01T06:31:10.665Z,8.05
2018-11-01T06:33:38.737Z,8.00
2018-11-01T06:36:08.800Z,8.13
2018-11-01T06:38:36.801Z,8.06
2018-11-01T06:41:04.763Z,8.10
2018-11-01T06:43:32.688Z,8.07
2018-11-01T06:46:00.725Z,8.15
2018-11-01T06:48:28.703Z,8.12
2018-11-01T06:50:56.626Z,8.17
2018-11-01T06:53:24.565Z,8.29
2018-11-01T06:55:52.454Z,8.28
2018-11-01T06:58:20.415Z,8.27
2018-11-01T07:00:48.404Z,8.32
2018-11-01T07:03:16.353Z,8.31
2018-11-01T07:05:44.325Z,8.23
2018-11-01T07:08:12.271Z,8.27
2018-11-01T07:10:40.357Z,8.23
2018-11-01T07:13:08.323Z,8.37
2018-11-01T07:15:36.365Z,8.31
2018-11-01T07:18:04.528Z,8.28
2018-11-01T07:20:32.510Z,8.40
2018-11-01T07:23:01.444Z,8.59
2018-11-01T07:25:29.570Z,8.63
2018-11-01T07:27:57.445Z,8.80
2018-11-01T07:30:25.554Z,8.75
2018-11-01T07:32:53.547Z,8.77
2018-11-01T07:35:21.544Z,8.82
2018-11-01T07:37:49.568Z,8.91
2018-11-01T07:40:17.992Z,8.95
2018-11-01T07:42:46.070Z,9.08
2018-11-01T07:45:14.660Z,9.18
2018-11-01T07:47:43.445Z,9.19
2018-11-01T07:50:12.471Z,9.18
2018-11-01T07:52:40.917Z,9.29
2018-11-01T07:55:11.353Z,9.37
2018-11-01T07:57:39.265Z,9.42
2018-11-01T08:00:10.677Z,9.60
2018-11-01T08:02:38.675Z,9.65
2018-11-01T08:05:08.022Z,9.64
2018-11-01T08:07:36.169Z,9.69
2018-11-01T08:10:06.084Z,9.76
2018-11-01T08:12:34.172Z,9.80
2018-11-01T08:15:02.240Z,9.82
2018-11-01T08:17:30.237Z,9.85
2018-11-01T08:19:58.444Z,9.93
2018-11-01T08:22:26.353Z,9.89
2018-11-01T08:24:54.360Z,9.97
2018-11-01T08:27:22.324Z,9.95
2018-11-01T08:29:50.373Z,9.96
2018-11-01T08:32:18.446Z,10.10
2018-11-01T08:34:46.454Z,10.09
2018-11-01T08:37:14.762Z,10.13
2018-11-01T08:39:42.709Z,10.29
2018-11-01T08:42:13.279Z,10.44
2018-11-01T08:44:41.353Z,10.47
2018-11-01T08:47:09.960Z,10.60
2018-11-01T08:49:38.012Z,10.74
2018-11-01T08:52:06.028Z,10.86
2018-11-01T08:54:45.929Z,10.98
2018-11-01T08:57:14.101Z,11.00
2018-11-01T08:59:42.406Z,11.08
2018-11-01T09:02:10.402Z,11.13
2018-11-01T09:04:38.485Z,11.25
2018-11-01T09:07:06.479Z,11.30
2018-11-01T09:09:34.503Z,11.40
2018-11-01T09:12:02.599Z,11.44
2018-11-01T09:14:30.648Z,11.49
2018-11-01T09:16:58.614Z,11.61
2018-11-01T09:19:27.343Z,11.67
2018-11-01T09:21:55.325Z,11.78
2018-11-01T09:24:23.345Z,11.86
2018-11-01T09:26:51.369Z,11.88
2018-11-01T09:29:19.290Z,11.84
2018-11-01T09:31:47.257Z,11.89
2018-11-01T09:34:15.255Z,11.97
2018-11-01T09:36:43.349Z,12.00
2018-11-01T09:39:12.091Z,12.08
2018-11-01T09:41:40.756Z,12.25
2018-11-01T09:44:08.731Z,12.29
2018-11-01T09:46:37.093Z,12.39
2018-11-01T09:49:05.581Z,12.47
2018-11-01T09:51:33.623Z,12.50
2018-11-01T09:54:01.592Z,12.44
2018-11-01T09:56:29.647Z,12.39
2018-11-01T09:58:59.011Z,12.51
2018-11-01T10:01:27.054Z,12.53
2018-11-01T10:03:55.053Z,12.63
2018-11-01T10:06:23.649Z,12.65
2018-11-01T10:08:51.599Z,12.60
2018-11-01T10:11:19.601Z,12.71
2018-11-01T10:13:47.547Z,12.78
2018-11-01T10:16:15.682Z,12.82
2018-11-01T10:18:43.577Z,12.92
2018-11-01T10:21:11.678Z,12.97
2018-11-01T10:23:39.846Z,13.05
2018-11-01T10:26:07.852Z,13.11
2018-11-01T10:28:35.893Z,13.12
2018-11-01T10:31:04.499Z,13.19
2018-11-01T10:33:33.031Z,13.28
2018-11-01T10:36:01.811Z,13.25
2018-11-01T10:38:29.891Z,13.35
2018-11-01T10:40:58.093Z,13.45
2018-11-01T10:43:26.048Z,13.46
2018-11-01T10:45:54.025Z,13.55
2018-11-01T10:48:22.009Z,13.51
2018-11-01T10:50:50.056Z,13.67
2018-11-01T10:53:18.092Z,13.76
2018-11-01T10:55:46.562Z,13.84
2018-11-01T10:58:14.504Z,13.89
2018-11-01T11:00:48.092Z,13.92
2018-11-01T11:03:16.093Z,13.93
2018-11-01T11:05:44.030Z,14.04
2018-11-01T11:08:11.952Z,14.13
2018-11-01T11:10:39.955Z,14.17
2018-11-01T11:13:07.895Z,14.14
2018-11-01T11:15:35.957Z,14.22
2018-11-01T11:18:03.914Z,14.26
2018-11-01T11:20:32.039Z,14.23
2018-11-01T11:22:59.893Z,14.35
2018-11-01T11:25:27.871Z,14.42
2018-11-01T11:27:55.865Z,14.37
2018-11-01T11:30:24.354Z,14.41
2018-11-01T11:32:52.249Z,14.49
2018-11-01T11:35:20.227Z,14.51
2018-11-01T11:37:48.224Z,14.60
2018-11-01T11:40:16.220Z,14.63
2018-11-01T11:42:44.281Z,14.68
2018-11-01T11:45:12.897Z,14.71
2018-11-01T11:47:41.455Z,14.60
2018-11-01T11:50:10.920Z,14.54
2018-11-01T11:52:38.949Z,14.62
2018-11-01T11:55:07.512Z,14.58
2018-11-01T11:57:35.543Z,14.50
2018-11-01T12:00:03.862Z,14.45
2018-11-01T12:02:31.953Z,14.47
2018-11-01T12:04:59.930Z,14.32
2018-11-01T12:07:27.976Z,14.32
2018-11-01T12:09:56.039Z,14.50
2018-11-01T12:12:24.037Z,14.44
2018-11-01T12:14:52.052Z,14.19
2018-11-01T12:17:20.126Z,14.26
2018-11-01T12:19:48.091Z,14.26
2018-11-01T12:22:16.369Z,14.25
2018-11-01T12:24:44.811Z,14.27
2018-11-01T12:27:12.763Z,14.46
2018-11-01T12:29:40.674Z,14.37
2018-11-01T12:32:08.731Z,14.24
2018-11-01T12:34:36.676Z,14.18
2018-11-01T12:37:08.343Z,14.05
2018-11-01T12:39:36.291Z,14.05
2018-11-01T12:42:04.347Z,13.95
2018-11-01T12:44:32.358Z,14.10
2018-11-01T12:47:00.315Z,13.88
2018-11-01T12:49:28.225Z,13.82
2018-11-01T12:51:56.198Z,13.72
2018-11-01T12:54:24.179Z,13.82
2018-11-01T12:56:54.852Z,13.76
2018-11-01T12:59:22.774Z,13.79
2018-11-01T13:01:50.793Z,13.72
2018-11-01T13:04:18.964Z,13.71
2018-11-01T13:06:47.007Z,13.46
2018-11-01T13:09:14.931Z,13.49
2018-11-01T13:11:43.168Z,13.57
2018-11-01T13:14:11.115Z,13.55
2018-11-01T13:16:39.504Z,13.58
2018-11-01T13:19:07.524Z,13.31
2018-11-01T13:21:35.522Z,13.29
2018-11-01T13:24:03.520Z,13.29
2018-11-01T13:26:34.201Z,13.20
2018-11-01T13:29:02.195Z,13.14
2018-11-01T13:31:30.199Z,13.09
2018-11-01T13:33:58.269Z,13.01
2018-11-01T13:36:26.247Z,12.94
2018-11-01T13:38:54.209Z,13.06
2018-11-01T13:41:22.319Z,13.14
2018-11-01T13:43:50.377Z,13.16
2018-11-01T13:46:18.571Z,13.20
2018-11-01T13:48:47.303Z,13.20
2018-11-01T13:51:16.084Z,13.16
2018-11-01T13:53:44.108Z,13.24
2018-11-01T13:56:12.018Z,13.22
2018-11-01T13:58:40.001Z,13.27
2018-11-01T14:01:08.102Z,13.24
2018-11-01T14:03:36.020Z,13.28
2018-11-01T14:06:04.027Z,13.34
2018-11-01T14:08:31.981Z,13.36
2018-11-01T14:10:59.902Z,13.38
2018-11-01T14:13:28.123Z,13.42
2018-11-01T14:15:55.977Z,13.38
2018-11-01T14:18:23.934Z,13.37
2018-11-01T14:20:51.902Z,13.35
2018-11-01T14:23:19.848Z,13.35
2018-11-01T14:25:47.917Z,13.33
2018-11-01T14:28:16.050Z,13.28
2018-11-01T14:30:44.154Z,13.28
2018-11-01T14:33:12.154Z,13.29
2018-11-01T14:35:40.059Z,13.32
2018-11-01T14:38:08.155Z,13.32
2018-11-01T14:40:36.091Z,13.30
2018-11-01T14:43:04.612Z,13.30
2018-11-01T14:45:33.208Z,13.28
2018-11-01T14:48:01.149Z,13.25
2018-11-01T14:50:29.084Z,13.21
2018-11-01T14:52:57.210Z,13.14
2018-11-01T14:55:26.231Z,13.11
2018-11-01T14:58:00.093Z,13.13
2018-11-01T15:00:26.545Z,13.04
2018-11-01T15:02:59.549Z,13.07
2018-11-01T15:05:30.581Z,12.98
2018-11-01T15:07:58.613Z,12.92
2018-11-01T15:10:27.384Z,12.90
2018-11-01T15:13:05.597Z,12.93
2018-11-01T15:15:36.681Z,12.84
2018-11-01T15:18:04.891Z,12.84
2018-11-01T15:20:33.869Z,12.92
2018-11-01T15:23:02.065Z,12.89
2018-11-01T15:25:31.656Z,12.89
2018-11-01T15:27:59.638Z,12.91
2018-11-01T15:30:27.759Z,12.92
2018-11-01T15:32:56.413Z,12.90
2018-11-01T15:35:24.527Z,12.88
2018-11-01T15:37:55.027Z,12.90
2018-11-01T15:40:23.190Z,12.88
2018-11-01T15:42:51.232Z,12.86
2018-11-01T15:45:19.294Z,12.89
2018-11-01T15:47:47.451Z,12.86
2018-11-01T15:50:15.467Z,12.88
2018-11-01T15:52:44.539Z,12.88
2018-11-01T15:55:12.571Z,12.87
2018-11-01T15:57:40.619Z,12.84
2018-11-01T16:00:10.662Z,12.83
2018-11-01T16:02:39.992Z,12.82
2018-11-01T16:05:08.169Z,12.82
2018-11-01T16:07:36.317Z,12.82
2018-11-01T16:10:05.667Z,12.71
2018-11-01T16:12:33.815Z,12.72
2018-11-01T16:15:01.764Z,12.69
2018-11-01T16:17:29.925Z,12.68
2018-11-01T16:19:58.211Z,12.58
2018-11-01T16:22:27.321Z,12.52
2018-11-01T16:24:55.360Z,12.50
2018-11-01T16:27:23.365Z,12.52
2018-11-01T16:29:51.332Z,12.50
2018-11-01T16:32:19.447Z,12.46
2018-11-01T16:34:47.575Z,12.45
2018-11-01T16:37:15.643Z,12.39
2018-11-01T16:39:43.635Z,12.32
2018-11-01T16:42:11.693Z,12.31
2018-11-01T16:44:39.600Z,12.36
2018-11-01T16:47:07.706Z,12.21
2018-11-01T16:49:36.276Z,12.28
2018-11-01T16:52:04.334Z,12.27
2018-11-01T16:54:32.381Z,12.30
2018-11-01T16:57:00.784Z,12.25
2018-11-01T16:59:28.894Z,12.09
2018-11-01T17:01:57.258Z,12.17
2018-11-01T17:04:25.284Z,12.21
2018-11-01T17:06:53.230Z,12.20
2018-11-01T17:09:21.307Z,12.18
2018-11-01T17:11:49.380Z,12.15
2018-11-01T17:14:18.131Z,12.09
2018-11-01T17:16:46.215Z,12.15
2018-11-01T17:19:14.212Z,12.15
2018-11-01T17:21:42.470Z,12.07
2018-11-01T17:24:10.448Z,12.02
2018-11-01T17:26:38.448Z,11.81
2018-11-01T17:29:06.474Z,11.94
2018-11-01T17:31:34.448Z,11.99
2018-11-01T17:34:02.494Z,12.01
2018-11-01T17:36:30.522Z,12.03
2018-11-01T17:38:58.528Z,12.01
2018-11-01T17:41:26.468Z,11.96
2018-11-01T17:43:54.471Z,11.94
2018-11-01T17:46:22.538Z,11.98
2018-11-01T17:48:50.528Z,12.03
2018-11-01T17:51:18.613Z,11.98
2018-11-01T17:53:46.536Z,11.97
2018-11-01T17:56:14.725Z,11.88
2018-11-01T17:58:42.702Z,11.95
2018-11-01T18:01:10.691Z,12.00
2018-11-01T18:03:38.717Z,12.00
2018-11-01T18:06:06.724Z,12.01
2018-11-01T18:08:34.947Z,12.01
2018-11-01T18:11:02.897Z,11.97
2018-11-01T18:13:30.872Z,11.93
2018-11-01T18:15:58.888Z,11.97
2018-11-01T18:18:26.929Z,11.95
2018-11-01T18:20:55.189Z,11.93
2018-11-01T18:23:23.511Z,11.91
2018-11-01T18:25:51.733Z,11.90
2018-11-01T18:28:20.644Z,11.93
2018-11-01T18:30:48.960Z,11.80
2018-11-01T18:33:17.465Z,11.80
2018-11-01T18:35:45.430Z,11.83
2018-11-01T18:38:13.511Z,11.86
2018-11-01T18:40:41.529Z,11.83
2018-11-01T18:43:09.593Z,11.81
2018-11-01T18:45:37.585Z,11.85
2018-11-01T18:48:05.771Z,11.86
2018-11-01T18:50:33.768Z,11.79
2018-11-01T18:53:01.784Z,11.87
2018-11-01T18:55:29.753Z,11.89
2018-11-01T18:57:57.880Z,11.91
2018-11-01T19:00:25.961Z,11.87
2018-11-01T19:02:53.997Z,11.85
2018-11-01T19:05:22.115Z,11.78
2018-11-01T19:07:50.203Z,11.78
2018-11-01T19:10:18.240Z,11.84
2018-11-01T19:12:46.248Z,11.85
2018-11-01T19:15:14.891Z,11.90
2018-11-01T19:17:43.176Z,11.86
2018-11-01T19:20:12.000Z,11.84
2018-11-01T19:22:40.125Z,11.84
2018-11-01T19:25:08.899Z,11.85
2018-11-01T19:27:37.371Z,11.84
2018-11-01T19:30:06.549Z,11.83
2018-11-01T19:32:34.592Z,11.83
2018-11-01T19:35:02.716Z,11.82
2018-11-01T19:37:30.784Z,11.68
2018-11-01T19:39:58.952Z,11.66
2018-11-01T19:42:26.985Z,11.70
2018-11-01T19:44:55.014Z,11.72
2018-11-01T19:47:23.042Z,11.69
2018-11-01T19:49:51.087Z,11.63
2018-11-01T19:52:19.124Z,11.70
2018-11-01T19:54:47.191Z,11.51
2018-11-01T19:57:15.145Z,11.59
2018-11-01T19:59:43.115Z,11.58
2018-11-01T20:02:11.159Z,11.58
2018-11-01T20:04:39.173Z,11.54
2018-11-01T20:07:07.198Z,11.53
2018-11-01T20:09:35.246Z,11.51
2018-11-01T20:12:03.378Z,11.56
2018-11-01T20:14:31.402Z,11.59
2018-11-01T20:16:59.317Z,11.61
2018-11-01T20:19:27.338Z,11.63
2018-11-01T20:21:55.242Z,11.54
2018-11-01T20:24:23.211Z,11.63
2018-11-01T20:26:51.152Z,11.52
2018-11-01T20:29:19.104Z,11.56
2018-11-01T20:31:47.220Z,11.63
2018-11-01T20:34:15.874Z,11.57
2018-11-01T20:36:43.929Z,11.57
2018-11-01T20:39:13.528Z,11.60
2018-11-01T20:41:41.837Z,11.58
2018-11-01T20:44:11.449Z,11.60
2018-11-01T20:46:39.742Z,11.59
2018-11-01T20:49:07.762Z,11.54
2018-11-01T20:51:35.995Z,11.60
2018-11-01T20:54:04.338Z,11.62
2018-11-01T20:56:32.321Z,11.66
2018-11-01T20:59:00.248Z,11.57
2018-11-01T21:01:28.315Z,11.61
2018-11-01T21:03:56.317Z,11.53
2018-11-01T21:06:24.286Z,11.57
2018-11-01T21:08:52.694Z,11.57
2018-11-01T21:11:27.398Z,11.56
2018-11-01T21:13:55.245Z,11.54
2018-11-01T21:16:23.519Z,11.50
2018-11-01T21:18:51.457Z,11.56
2018-11-01T21:21:19.453Z,11.51
2018-11-01T21:23:47.590Z,11.39
2018-11-01T21:26:15.644Z,11.40
2018-11-01T21:28:43.859Z,11.42
2018-11-01T21:31:12.946Z,11.44
2018-11-01T21:33:40.937Z,11.29
2018-11-01T21:36:09.033Z,11.28
2018-11-01T21:38:37.181Z,11.31
2018-11-01T21:41:05.298Z,11.34
2018-11-01T21:43:33.246Z,11.37
2018-11-01T21:46:01.320Z,11.35
2018-11-01T21:48:29.388Z,11.34
2018-11-01T21:50:57.378Z,11.36
2018-11-01T21:53:25.415Z,11.42
2018-11-01T21:55:53.469Z,11.33
2018-11-01T21:58:21.471Z,11.33
2018-11-01T22:00:49.451Z,11.42
2018-11-01T22:03:17.472Z,11.40
2018-11-01T22:05:45.444Z,11.32
2018-11-01T22:08:13.392Z,11.31
2018-11-01T22:10:41.453Z,11.43
2018-11-01T22:13:09.428Z,11.30
2018-11-01T22:15:37.449Z,11.30
2018-11-01T22:18:05.952Z,11.23
2018-11-01T22:20:34.040Z,11.22
2018-11-01T22:23:02.044Z,11.26
2018-11-01T22:25:30.025Z,11.23
2018-11-01T22:27:58.097Z,11.32
2018-11-01T22:30:26.042Z,11.39
2018-11-01T22:32:54.102Z,11.38
2018-11-01T22:35:22.107Z,11.34
2018-11-01T22:37:50.115Z,11.34
2018-11-01T22:40:18.106Z,11.27
2018-11-01T22:42:46.062Z,11.28
2018-11-01T22:45:14.083Z,11.31
2018-11-01T22:47:42.046Z,11.34
2018-11-01T22:50:10.776Z,11.24
2018-11-01T22:52:39.219Z,11.19
2018-11-01T22:55:08.586Z,11.26
2018-11-01T22:57:36.582Z,11.22
2018-11-01T23:00:06.104Z,11.18
2018-11-01T23:02:33.998Z,11.15
2018-11-01T23:05:02.064Z,11.22
2018-11-01T23:07:30.085Z,11.22
2018-11-01T23:09:58.170Z,11.31
2018-11-01T23:12:26.173Z,11.33
2018-11-01T23:14:54.209Z,11.28
2018-11-01T23:17:22.233Z,11.25
2018-11-01T23:19:50.257Z,11.18
2018-11-01T23:22:18.513Z,11.25
2018-11-01T23:24:46.514Z,11.25
2018-11-01T23:27:14.625Z,11.32
2018-11-01T23:29:42.666Z,11.29
2018-11-01T23:32:10.656Z,11.31
2018-11-01T23:34:38.632Z,11.26
2018-11-01T23:37:12.625Z,11.32
2018-11-01T23:39:46.243Z,11.30
2018-11-01T23:42:21.233Z,11.34
2018-11-01T23:44:54.798Z,11.34
2018-11-01T23:47:28.439Z,11.33
2018-11-01T23:50:01.789Z,11.35
2018-11-01T23:52:30.167Z,11.24
2018-11-01T23:54:58.138Z,11.36
2018-11-01T23:57:26.220Z,11.29
2018-11-01T23:59:54.168Z,11.39
